createdAt,value
2023-02-21T00:01:46.977Z,9.19
2023-02-21T00:04:32.763Z,9.37
2023-02-21T00:10:54.989Z,9.39
2023-02-21T00:13:41.752Z,9.30
2023-02-21T00:16:29.422Z,9.31
2023-02-21T00:19:20.117Z,9.38
2023-02-21T00:22:06.291Z,9.26
2023-02-21T00:28:01.590Z,9.26
2023-02-21T00:30:47.066Z,9.24
2023-02-21T00:33:33.615Z,9.28
2023-02-21T00:36:22.614Z,9.18
2023-02-21T00:39:08.589Z,9.24
2023-02-21T00:41:54.311Z,9.19
2023-02-21T00:44:40.048Z,9.27
2023-02-21T00:47:25.816Z,9.29
2023-02-21T00:50:11.677Z,9.45
2023-02-21T00:53:18.147Z,9.28
2023-02-21T00:56:05.145Z,9.41
2023-02-21T00:58:50.836Z,9.45
2023-02-21T01:01:36.690Z,9.44
2023-02-21T01:04:23.290Z,9.31
2023-02-21T01:07:12.632Z,9.31
2023-02-21T01:09:58.210Z,9.40
2023-02-21T01:12:45.053Z,9.43
2023-02-21T01:15:49.279Z,9.36
2023-02-21T01:18:38.573Z,9.36
2023-02-21T01:21:24.834Z,9.27
2023-02-21T01:24:11.875Z,9.35
2023-02-21T01:27:10.633Z,9.22
2023-02-21T01:29:57.433Z,9.28
2023-02-21T01:32:44.395Z,9.26
2023-02-21T01:35:50.917Z,9.22
2023-02-21T01:38:37.161Z,9.35
2023-02-21T01:41:24.514Z,9.31
2023-02-21T01:44:56.493Z,9.25
2023-02-21T01:47:42.844Z,9.37
2023-02-21T01:50:49.912Z,9.37
2023-02-21T01:53:40.941Z,9.36
2023-02-21T01:56:27.338Z,9.24
2023-02-21T01:59:15.031Z,9.35
2023-02-21T02:02:33.114Z,9.35
2023-02-21T02:05:51.264Z,9.27
2023-02-21T02:08:45.192Z,9.18
2023-02-21T02:11:42.904Z,9.21
2023-02-21T02:14:44.913Z,9.18
2023-02-21T02:17:42.830Z,9.22
2023-02-21T02:20:38.604Z,9.13
2023-02-21T02:23:24.737Z,9.14
2023-02-21T02:26:15.055Z,9.17
2023-02-21T02:29:25.471Z,9.31
2023-02-21T02:32:18.237Z,9.31
2023-02-21T02:35:10.572Z,9.29
2023-02-21T02:37:45.682Z,9.19
2023-02-21T02:40:22.151Z,9.17
2023-02-21T02:43:15.473Z,9.20
2023-02-21T02:45:56.950Z,9.15
2023-02-21T02:48:39.600Z,9.24
2023-02-21T02:51:10.320Z,9.19
2023-02-21T02:54:10.552Z,9.27
2023-02-21T02:56:40.086Z,9.26
2023-02-21T02:59:27.538Z,9.28
2023-02-21T03:02:02.318Z,9.33
2023-02-21T03:05:07.266Z,9.31
2023-02-21T03:07:40.448Z,9.39
2023-02-21T03:10:29.966Z,9.25
2023-02-21T03:13:13.860Z,9.26
2023-02-21T03:15:47.288Z,9.28
2023-02-21T03:18:20.340Z,9.23
2023-02-21T03:20:52.414Z,9.48
2023-02-21T03:23:20.327Z,9.36
2023-02-21T03:25:49.332Z,9.37
2023-02-21T03:28:18.287Z,9.32
2023-02-21T03:30:56.979Z,9.30
2023-02-21T03:33:24.417Z,9.32
2023-02-21T03:35:53.157Z,9.26
2023-02-21T03:38:20.590Z,9.25
2023-02-21T03:40:49.358Z,9.19
2023-02-21T03:43:16.727Z,9.31
2023-02-21T03:45:56.417Z,9.31
2023-02-21T03:48:31.873Z,9.14
2023-02-21T03:51:11.694Z,9.22
2023-02-21T03:53:39.178Z,9.10
2023-02-21T03:56:08.248Z,9.23
2023-02-21T03:58:54.311Z,9.24
2023-02-21T04:01:21.786Z,9.15
2023-02-21T04:03:49.510Z,9.15
2023-02-21T04:06:16.931Z,9.22
2023-02-21T04:08:44.078Z,9.24
2023-02-21T04:11:11.396Z,9.15
2023-02-21T04:13:41.952Z,9.20
2023-02-21T04:16:09.352Z,9.04
2023-02-21T04:18:37.851Z,9.06
2023-02-21T04:21:07.232Z,9.13
2023-02-21T04:23:34.895Z,9.11
2023-02-21T04:26:03.434Z,9.12
2023-02-21T04:28:38.634Z,8.98
2023-02-21T04:31:06.429Z,8.97
2023-02-21T04:33:34.283Z,8.98
2023-02-21T04:36:01.946Z,9.04
2023-02-21T04:38:36.033Z,8.99
2023-02-21T04:41:04.194Z,8.99
2023-02-21T04:43:31.523Z,9.08
2023-02-21T04:45:58.645Z,9.08
2023-02-21T04:48:26.231Z,8.99
2023-02-21T04:50:55.875Z,8.94
2023-02-21T04:53:24.272Z,9.03
2023-02-21T04:55:51.305Z,9.30
2023-02-21T04:58:18.582Z,9.29
2023-02-21T05:00:45.502Z,9.32
2023-02-21T05:03:12.818Z,9.36
2023-02-21T05:05:40.082Z,9.16
2023-02-21T05:08:06.947Z,9.21
2023-02-21T05:10:45.120Z,9.20
2023-02-21T05:13:13.674Z,9.33
2023-02-21T05:15:40.840Z,9.51
2023-02-21T05:18:07.722Z,9.52
2023-02-21T05:20:34.782Z,9.63
2023-02-21T05:23:11.715Z,9.66
2023-02-21T05:25:40.662Z,9.43
2023-02-21T05:28:07.602Z,9.27
2023-02-21T05:30:34.531Z,9.08
2023-02-21T05:33:01.493Z,9.07
2023-02-21T05:35:28.863Z,9.07
2023-02-21T05:37:56.452Z,9.14
2023-02-21T05:40:23.512Z,9.12
2023-02-21T05:42:50.562Z,9.13
2023-02-21T05:45:17.793Z,9.06
2023-02-21T05:47:44.935Z,9.04
2023-02-21T05:50:12.133Z,9.12
2023-02-21T05:52:39.299Z,9.09
2023-02-21T05:55:06.762Z,9.15
2023-02-21T05:57:39.095Z,9.32
2023-02-21T06:00:07.215Z,9.57
2023-02-21T06:02:38.781Z,9.45
2023-02-21T06:05:06.927Z,9.32
2023-02-21T06:07:34.066Z,9.28
2023-02-21T06:10:01.102Z,9.29
2023-02-21T06:12:28.236Z,9.25
2023-02-21T06:14:55.202Z,9.31
2023-02-21T06:17:22.596Z,9.26
2023-02-21T06:19:49.466Z,9.36
2023-02-21T06:22:18.056Z,9.35
2023-02-21T06:24:44.945Z,9.40
2023-02-21T06:27:12.164Z,9.18
2023-02-21T06:29:39.687Z,9.29
2023-02-21T06:32:06.664Z,9.47
2023-02-21T06:34:33.511Z,9.41
2023-02-21T06:37:00.242Z,9.40
2023-02-21T06:39:26.977Z,9.51
2023-02-21T06:41:54.096Z,9.38
2023-02-21T06:44:21.212Z,9.37
2023-02-21T06:46:50.565Z,9.44
2023-02-21T06:49:17.960Z,9.32
2023-02-21T06:51:45.256Z,9.25
2023-02-21T06:54:13.154Z,9.24
2023-02-21T06:56:40.516Z,9.24
2023-02-21T06:59:07.392Z,9.37
2023-02-21T07:01:34.813Z,9.36
2023-02-21T07:04:01.954Z,9.33
2023-02-21T07:06:29.927Z,9.52
2023-02-21T07:08:57.684Z,9.46
2023-02-21T07:11:25.831Z,9.51
2023-02-21T07:13:54.369Z,9.71
2023-02-21T07:16:22.037Z,9.51
2023-02-21T07:18:52.164Z,9.51
2023-02-21T07:21:20.141Z,9.40
2023-02-21T07:23:48.052Z,9.46
2023-02-21T07:26:15.724Z,9.39
2023-02-21T07:28:42.985Z,9.53
2023-02-21T07:31:11.391Z,9.53
2023-02-21T07:33:39.863Z,9.50
2023-02-21T07:36:07.424Z,9.56
2023-02-21T07:38:34.089Z,9.43
2023-02-21T07:41:03.186Z,9.54
2023-02-21T07:43:32.851Z,9.52
2023-02-21T07:46:00.316Z,9.53
2023-02-21T07:48:27.663Z,9.59
2023-02-21T07:50:55.132Z,9.60
2023-02-21T07:53:22.098Z,9.60
2023-02-21T07:55:48.962Z,9.63
2023-02-21T07:58:16.050Z,9.72
2023-02-21T08:00:42.787Z,9.67
2023-02-21T08:03:13.003Z,9.65
2023-02-21T08:05:40.222Z,9.55
2023-02-21T08:08:09.243Z,9.53
2023-02-21T08:10:36.887Z,9.75
2023-02-21T08:13:04.109Z,9.79
2023-02-21T08:15:31.484Z,9.62
2023-02-21T08:17:58.246Z,9.65
2023-02-21T08:20:25.544Z,9.48
2023-02-21T08:22:52.311Z,9.56
2023-02-21T08:25:19.102Z,9.57
2023-02-21T08:27:56.136Z,9.59
2023-02-21T08:30:25.579Z,9.70
2023-02-21T08:32:52.841Z,9.57
2023-02-21T08:35:20.884Z,9.69
2023-02-21T08:37:49.212Z,9.71
2023-02-21T08:40:19.978Z,9.85
2023-02-21T08:42:51.926Z,9.70
2023-02-21T08:45:21.585Z,9.80
2023-02-21T08:47:49.303Z,9.84
2023-02-21T08:50:16.904Z,9.93
2023-02-21T08:52:46.684Z,9.85
2023-02-21T08:55:14.226Z,9.88
2023-02-21T08:57:41.384Z,9.90
2023-02-21T09:00:12.785Z,9.90
2023-02-21T09:02:40.639Z,9.88
2023-02-21T09:05:14.788Z,9.93
2023-02-21T09:07:42.511Z,10.11
2023-02-21T09:10:11.684Z,10.01
2023-02-21T09:12:39.105Z,9.95
2023-02-21T09:15:07.162Z,10.11
2023-02-21T09:17:34.973Z,10.28
2023-02-21T09:20:06.896Z,10.22
2023-02-21T09:22:34.720Z,10.09
2023-02-21T09:25:01.795Z,10.15
2023-02-21T09:27:37.837Z,10.46
2023-02-21T09:30:11.299Z,10.39
2023-02-21T09:32:39.324Z,10.56
2023-02-21T09:35:06.882Z,10.16
2023-02-21T09:37:38.298Z,10.09
2023-02-21T09:40:13.770Z,10.04
2023-02-21T09:42:41.519Z,10.25
2023-02-21T09:45:16.328Z,10.53
2023-02-21T09:47:44.783Z,10.44
2023-02-21T09:50:16.635Z,10.34
2023-02-21T09:52:43.852Z,10.60
2023-02-21T09:55:36.898Z,10.48
2023-02-21T09:58:04.475Z,10.42
2023-02-21T10:00:35.579Z,10.64
2023-02-21T10:03:40.695Z,10.66
2023-02-21T10:06:45.486Z,10.57
2023-02-21T10:09:25.353Z,10.40
2023-02-21T10:12:10.954Z,10.52
2023-02-21T10:14:57.389Z,10.47
2023-02-21T10:17:34.682Z,10.73
2023-02-21T10:20:39.147Z,10.78
2023-02-21T10:23:24.708Z,10.65
2023-02-21T10:25:55.922Z,10.69
2023-02-21T10:28:25.758Z,10.63
2023-02-21T10:30:58.004Z,10.61
2023-02-21T10:33:25.477Z,10.71
2023-02-21T10:35:55.308Z,10.75
2023-02-21T10:38:26.584Z,10.68
2023-02-21T10:40:57.482Z,10.70
2023-02-21T10:43:33.610Z,10.57
2023-02-21T10:46:06.600Z,10.65
2023-02-21T10:48:38.471Z,10.76
2023-02-21T10:51:18.691Z,10.62
2023-02-21T10:53:47.600Z,10.76
2023-02-21T10:56:20.839Z,10.80
2023-02-21T10:59:07.291Z,10.66
2023-02-21T11:01:46.409Z,10.84
2023-02-21T11:04:23.124Z,10.75
2023-02-21T11:06:55.071Z,10.66
2023-02-21T11:09:27.899Z,10.66
2023-02-21T11:12:21.009Z,10.69
2023-02-21T11:14:51.476Z,10.66
2023-02-21T11:17:21.143Z,10.57
2023-02-21T11:20:10.286Z,10.63
2023-02-21T11:22:42.841Z,10.41
2023-02-21T11:25:29.698Z,10.35
2023-02-21T11:28:14.962Z,10.61
2023-02-21T11:30:52.506Z,10.63
2023-02-21T11:33:23.465Z,10.48
2023-02-21T11:35:54.885Z,10.58
2023-02-21T11:38:36.053Z,10.84
2023-02-21T11:41:46.148Z,10.58
2023-02-21T11:44:31.526Z,10.40
2023-02-21T11:47:16.797Z,10.55
2023-02-21T11:50:06.296Z,10.38
2023-02-21T11:52:36.718Z,10.41
2023-02-21T11:55:12.970Z,10.39
2023-02-21T11:58:11.047Z,10.40
2023-02-21T12:01:01.992Z,10.36
2023-02-21T12:03:38.195Z,10.35
2023-02-21T12:06:21.253Z,10.34
2023-02-21T12:08:59.544Z,10.04
2023-02-21T12:12:04.411Z,9.85
2023-02-21T12:15:08.335Z,9.93
2023-02-21T12:17:59.278Z,10.04
2023-02-21T12:20:59.022Z,10.13
2023-02-21T12:23:44.930Z,9.89
2023-02-21T12:26:47.054Z,9.89
2023-02-21T12:29:17.456Z,9.99
2023-02-21T12:31:50.247Z,10.07
2023-02-21T12:34:32.367Z,9.74
2023-02-21T12:37:11.440Z,9.62
2023-02-21T12:39:51.236Z,9.71
2023-02-21T12:42:31.878Z,10.16
2023-02-21T12:45:05.868Z,10.15
2023-02-21T12:47:40.074Z,10.04
2023-02-21T12:50:18.321Z,10.27
2023-02-21T12:53:05.928Z,10.20
2023-02-21T12:55:39.140Z,10.08
2023-02-21T12:58:13.620Z,9.90
2023-02-21T13:00:50.630Z,9.97
2023-02-21T13:03:40.488Z,10.04
2023-02-21T13:06:17.317Z,9.99
2023-02-21T13:08:54.505Z,9.96
2023-02-21T13:11:33.788Z,10.00
2023-02-21T13:14:01.470Z,9.99
2023-02-21T13:16:28.834Z,9.83
2023-02-21T13:19:05.267Z,9.91
2023-02-21T13:21:40.086Z,9.91
2023-02-21T13:24:31.263Z,9.88
2023-02-21T13:27:24.665Z,9.87
2023-02-21T13:29:52.466Z,9.87
2023-02-21T13:32:20.595Z,10.09
2023-02-21T13:34:54.386Z,9.99
2023-02-21T13:37:25.661Z,9.99
2023-02-21T13:40:00.597Z,10.04
2023-02-21T13:42:29.976Z,9.88
2023-02-21T13:45:22.198Z,10.08
2023-02-21T13:48:00.239Z,10.03
2023-02-21T13:50:39.964Z,10.06
2023-02-21T13:53:13.351Z,10.13
2023-02-21T13:55:40.892Z,10.31
2023-02-21T13:58:18.974Z,10.24
2023-02-21T14:00:47.790Z,10.25
2023-02-21T14:03:18.343Z,10.11
2023-02-21T14:05:46.265Z,10.11
2023-02-21T14:08:18.504Z,10.42
2023-02-21T14:10:50.903Z,10.29
2023-02-21T14:13:21.828Z,10.22
2023-02-21T14:15:55.705Z,10.05
2023-02-21T14:18:29.382Z,9.91
2023-02-21T14:20:57.422Z,10.04
2023-02-21T14:23:32.683Z,9.95
2023-02-21T14:26:01.477Z,9.94
2023-02-21T14:28:59.127Z,9.95
2023-02-21T14:31:46.256Z,9.71
2023-02-21T14:34:13.897Z,9.61
2023-02-21T14:36:41.702Z,9.78
2023-02-21T14:39:08.639Z,9.67
2023-02-21T14:41:50.112Z,9.67
2023-02-21T14:44:47.530Z,9.60
2023-02-21T14:47:42.407Z,9.53
2023-02-21T14:50:14.452Z,9.63
2023-02-21T14:53:04.012Z,9.73
2023-02-21T14:55:40.592Z,9.78
2023-02-21T15:07:09.169Z,9.38
2023-02-21T15:22:20.965Z,9.41
2023-02-21T15:25:10.899Z,9.32
2023-02-21T15:27:58.863Z,9.26
2023-02-21T15:30:39.427Z,9.17
2023-02-21T15:33:16.231Z,9.11
2023-02-21T15:35:48.343Z,9.12
2023-02-21T15:38:24.711Z,9.13
2023-02-21T15:40:56.287Z,9.13
2023-02-21T15:43:57.964Z,8.95
2023-02-21T15:46:29.572Z,9.07
2023-02-21T15:48:59.741Z,8.94
2023-02-21T15:51:26.707Z,8.86
2023-02-21T15:54:19.401Z,9.02
2023-02-21T15:56:46.831Z,9.06
2023-02-21T15:59:25.996Z,8.93
2023-02-21T16:02:11.823Z,8.92
2023-02-21T16:04:41.673Z,8.77
2023-02-21T16:07:29.381Z,8.82
2023-02-21T16:10:08.523Z,8.69
2023-02-21T16:12:48.482Z,8.65
2023-02-21T16:15:29.594Z,8.60
2023-02-21T16:18:06.025Z,8.47
2023-02-21T16:20:41.554Z,8.58
2023-02-21T16:23:35.840Z,8.46
2023-02-21T16:26:16.801Z,8.38
2023-02-21T16:28:45.400Z,8.42
2023-02-21T16:31:24.742Z,8.35
2023-02-21T16:33:52.220Z,8.44
2023-02-21T16:36:24.522Z,8.41
2023-02-21T16:38:51.985Z,8.26
2023-02-21T16:41:19.430Z,8.43
2023-02-21T16:43:47.304Z,8.40
2023-02-21T16:46:15.735Z,8.38
2023-02-21T16:48:44.265Z,8.46
2023-02-21T16:51:15.276Z,8.26
2023-02-21T16:53:43.064Z,8.43
2023-02-21T16:56:12.045Z,8.37
2023-02-21T16:58:41.108Z,8.43
2023-02-21T17:01:15.087Z,8.37
2023-02-21T17:03:42.702Z,8.38
2023-02-21T17:06:18.454Z,8.32
2023-02-21T17:08:45.948Z,8.18
2023-02-21T17:11:13.346Z,8.11
2023-02-21T17:13:40.786Z,8.21
2023-02-21T17:16:08.392Z,8.26
2023-02-21T17:18:35.313Z,8.24
2023-02-21T17:21:02.535Z,8.25
2023-02-21T17:23:29.603Z,8.28
2023-02-21T17:25:56.507Z,8.24
2023-02-21T17:28:24.004Z,8.28
2023-02-21T17:30:51.233Z,8.29
2023-02-21T17:33:18.695Z,8.24
2023-02-21T17:35:45.593Z,8.20
2023-02-21T17:38:13.156Z,8.32
2023-02-21T17:40:40.648Z,8.28
2023-02-21T17:43:09.234Z,8.27
2023-02-21T17:45:36.523Z,8.17
2023-02-21T17:48:05.818Z,8.23
2023-02-21T17:50:33.368Z,8.28
2023-02-21T17:53:00.747Z,8.40
2023-02-21T17:55:30.321Z,8.46
2023-02-21T17:57:58.103Z,8.31
2023-02-21T18:00:27.974Z,8.30
2023-02-21T18:02:56.505Z,8.41
2023-02-21T18:05:23.844Z,8.26
2023-02-21T18:07:53.454Z,8.28
2023-02-21T18:10:23.478Z,8.36
2023-02-21T18:12:51.553Z,8.38
2023-02-21T18:15:23.745Z,8.38
2023-02-21T18:17:51.257Z,8.21
2023-02-21T18:20:18.883Z,8.30
2023-02-21T18:22:46.156Z,8.37
2023-02-21T18:25:16.881Z,8.44
2023-02-21T18:27:44.185Z,8.24
2023-02-21T18:30:12.126Z,8.11
2023-02-21T18:32:39.326Z,8.20
2023-02-21T18:35:06.786Z,8.25
2023-02-21T18:37:34.059Z,8.32
2023-02-21T18:40:01.938Z,8.15
2023-02-21T18:42:29.219Z,8.06
2023-02-21T18:44:58.075Z,8.02
2023-02-21T18:47:26.346Z,8.13
2023-02-21T18:49:56.325Z,7.94
2023-02-21T18:52:24.075Z,8.14
2023-02-21T18:54:51.733Z,8.12
2023-02-21T18:57:21.367Z,8.03
2023-02-21T18:59:49.521Z,8.16
2023-02-21T19:02:18.001Z,8.39
2023-02-21T19:04:45.688Z,8.36
2023-02-21T19:07:14.846Z,8.27
2023-02-21T19:09:42.245Z,8.25
2023-02-21T19:12:09.517Z,8.31
2023-02-21T19:14:38.849Z,8.32
2023-02-21T19:17:07.856Z,8.36
2023-02-21T19:19:36.287Z,8.34
2023-02-21T19:22:05.092Z,8.33
2023-02-21T19:24:32.430Z,8.27
2023-02-21T19:27:00.400Z,8.44
2023-02-21T19:29:27.756Z,8.37
2023-02-21T19:31:55.219Z,8.35
2023-02-21T19:34:22.501Z,8.40
2023-02-21T19:36:50.365Z,8.37
2023-02-21T19:39:17.935Z,8.44
2023-02-21T19:41:45.262Z,8.40
2023-02-21T19:44:12.630Z,8.36
2023-02-21T19:46:40.045Z,8.26
2023-02-21T19:49:17.806Z,8.17
2023-02-21T19:51:46.498Z,8.27
2023-02-21T19:54:14.298Z,8.20
2023-02-21T19:56:41.478Z,8.34
2023-02-21T19:59:08.947Z,8.22
2023-02-21T20:01:36.602Z,8.48
2023-02-21T20:04:04.526Z,8.46
2023-02-21T20:06:35.373Z,8.43
2023-02-21T20:09:04.403Z,8.42
2023-02-21T20:11:31.770Z,8.45
2023-02-21T20:13:59.918Z,8.23
2023-02-21T20:16:28.414Z,8.25
2023-02-21T20:18:57.675Z,8.13
2023-02-21T20:21:28.127Z,8.24
2023-02-21T20:23:56.059Z,8.25
2023-02-21T20:26:26.133Z,8.26
2023-02-21T20:28:55.639Z,8.36
2023-02-21T20:31:26.427Z,8.37
2023-02-21T20:33:53.852Z,8.36
2023-02-21T20:36:31.891Z,8.26
2023-02-21T20:38:59.094Z,8.41
2023-02-21T20:41:31.351Z,8.26
2023-02-21T20:43:59.289Z,8.11
2023-02-21T20:46:27.606Z,8.27
2023-02-21T20:48:58.636Z,8.23
2023-02-21T20:51:38.639Z,8.23
2023-02-21T20:54:06.516Z,8.11
2023-02-21T20:56:36.282Z,8.11
2023-02-21T20:59:05.237Z,8.00
2023-02-21T21:01:32.501Z,8.11
2023-02-21T21:03:59.929Z,8.17
2023-02-21T21:06:26.889Z,8.06
2023-02-21T21:08:54.462Z,8.03
2023-02-21T21:11:26.039Z,7.95
2023-02-21T21:13:53.682Z,8.13
2023-02-21T21:16:21.226Z,8.15
2023-02-21T21:18:48.938Z,7.97
2023-02-21T21:21:16.555Z,7.97
2023-02-21T21:23:44.086Z,7.92
2023-02-21T21:26:12.268Z,7.94
2023-02-21T21:28:41.221Z,7.89
2023-02-21T21:31:09.304Z,8.05
2023-02-21T21:33:37.078Z,8.08
2023-02-21T21:36:05.756Z,8.03
2023-02-21T21:38:32.957Z,7.96
2023-02-21T21:41:00.266Z,8.00
2023-02-21T21:43:28.638Z,8.03
2023-02-21T21:45:56.242Z,7.97
2023-02-21T21:48:25.232Z,8.02
2023-02-21T21:50:52.986Z,7.98
2023-02-21T21:53:20.380Z,8.16
2023-02-21T21:55:48.360Z,8.06
2023-02-21T21:58:15.519Z,7.95
2023-02-21T22:00:42.867Z,7.81
2023-02-21T22:03:14.640Z,7.86
2023-02-21T22:05:46.127Z,7.78
2023-02-21T22:08:18.090Z,7.94
2023-02-21T22:10:46.003Z,7.88
2023-02-21T22:13:20.945Z,7.83
2023-02-21T22:15:48.805Z,7.75
2023-02-21T22:18:20.458Z,7.78
2023-02-21T22:20:50.348Z,7.59
2023-02-21T22:23:24.435Z,7.69
2023-02-21T22:25:52.562Z,7.65
2023-02-21T22:28:19.870Z,7.67
2023-02-21T22:30:47.212Z,7.72
2023-02-21T22:33:18.225Z,7.70
2023-02-21T22:35:47.443Z,7.62
2023-02-21T22:38:17.587Z,7.69
2023-02-21T22:40:46.425Z,7.63
2023-02-21T22:43:14.370Z,7.64
2023-02-21T22:45:50.061Z,7.67
2023-02-21T22:48:20.541Z,7.68
2023-02-21T22:50:48.470Z,7.62
2023-02-21T22:53:19.160Z,7.67
2023-02-21T22:55:51.855Z,7.61
2023-02-21T22:58:20.665Z,7.62
2023-02-21T23:00:49.200Z,7.56
2023-02-21T23:03:18.080Z,7.52
2023-02-21T23:05:50.330Z,7.56
2023-02-21T23:08:20.285Z,7.44
2023-02-21T23:10:48.193Z,7.43
2023-02-21T23:13:18.878Z,7.46
2023-02-21T23:15:47.352Z,7.54
2023-02-21T23:18:23.462Z,7.55
2023-02-21T23:20:53.781Z,7.47
2023-02-21T23:23:26.178Z,7.52
2023-02-21T23:25:56.559Z,7.39
2023-02-21T23:28:23.990Z,7.58
2023-02-21T23:30:51.330Z,7.69
2023-02-21T23:33:30.268Z,7.74
2023-02-21T23:35:57.402Z,7.78
2023-02-21T23:38:28.240Z,7.70
2023-02-21T23:40:58.763Z,7.71
2023-02-21T23:43:29.769Z,7.69
2023-02-21T23:45:58.298Z,7.35
2023-02-21T23:48:25.317Z,7.60
2023-02-21T23:50:58.235Z,7.55
2023-02-21T23:53:29.311Z,7.56
2023-02-21T23:55:57.980Z,7.51
2023-02-21T23:58:27.865Z,7.54
